<?xml version="1.0" encoding="UTF-8" standalone="no" ?>
<gpx xmlns="http://www.topografix.com/GPX/1/1" xmlns:xsi="http://www.w3.org/2001/XMLSchema-instance" xsi:schemaLocation="http://www.topografix.com/GPX/1/1 http://www.topografix.com/GPX/1/1/gpx.xsd" version="1.1" creator="VisuGPX - https://www.visugpx.com">
  <metadata>
    <name>Clermont-Ferrand - Massat - Pau par François</name>
    <desc><![CDATA[Trajet effectué par François sur la "Diagonale du vide" en aout 2020]]></desc>
  </metadata>
  <trk>
    <name><![CDATA[route117]]></name>
    <trkseg>
      <trkpt lat="42.72436" lon="1.89195">
        <ele>1104.4</ele>
        <time>2020-08-30T06:56:00Z</time>
      </trkpt>
      <trkpt lat="42.72445" lon="1.89071">
        <ele>1102</ele>
        <time>2020-08-30T06:56:54Z</time>
      </trkpt>
      <trkpt lat="42.72523" lon="1.88952">
        <ele>1097.1</ele>
        <time>2020-08-30T06:57:19Z</time>
      </trkpt>
      <trkpt lat="42.72494" lon="1.88821">
        <ele>1093.1</ele>
        <time>2020-08-30T06:58:04Z</time>
      </trkpt>
      <trkpt lat="42.72459" lon="1.88706">
        <ele>1092.9</ele>
        <time>2020-08-30T06:58:34Z</time>
      </trkpt>
      <trkpt lat="42.72414" lon="1.88569">
        <ele>1091.9</ele>
        <time>2020-08-30T06:58:59Z</time>
      </trkpt>
      <trkpt lat="42.72318" lon="1.88469">
        <ele>1089</ele>
        <time>2020-08-30T06:59:19Z</time>
      </trkpt>
      <trkpt lat="42.72291" lon="1.88343">
        <ele>1086.3</ele>
        <time>2020-08-30T06:59:34Z</time>
      </trkpt>
      <trkpt lat="42.72198" lon="1.88253">
        <ele>1085.7</ele>
        <time>2020-08-30T06:59:49Z</time>
      </trkpt>
      <trkpt lat="42.72154" lon="1.88144">
        <ele>1082.2</ele>
        <time>2020-08-30T06:59:59Z</time>
      </trkpt>
      <trkpt lat="42.72108" lon="1.88013">
        <ele>1074.2</ele>
        <time>2020-08-30T07:00:14Z</time>
      </trkpt>
      <trkpt lat="42.72025" lon="1.87904">
        <ele>1068.1</ele>
        <time>2020-08-30T07:00:29Z</time>
      </trkpt>
      <trkpt lat="42.71962" lon="1.87779">
        <ele>1059.6</ele>
        <time>2020-08-30T07:00:44Z</time>
      </trkpt>
      <trkpt lat="42.71946" lon="1.87651">
        <ele>1052.2</ele>
        <time>2020-08-30T07:00:54Z</time>
      </trkpt>
      <trkpt lat="42.71951" lon="1.87523">
        <ele>1046.4</ele>
        <time>2020-08-30T07:01:04Z</time>
      </trkpt>
      <trkpt lat="42.71973" lon="1.87401">
        <ele>1042.8</ele>
        <time>2020-08-30T07:01:14Z</time>
      </trkpt>
      <trkpt lat="42.71958" lon="1.87233">
        <ele>1035.4</ele>
        <time>2020-08-30T07:01:29Z</time>
      </trkpt>
      <trkpt lat="42.71956" lon="1.87051">
        <ele>1027.9</ele>
        <time>2020-08-30T07:01:44Z</time>
      </trkpt>
      <trkpt lat="42.7198" lon="1.86926">
        <ele>1021.6</ele>
        <time>2020-08-30T07:01:59Z</time>
      </trkpt>
      <trkpt lat="42.72016" lon="1.86784">
        <ele>1012.2</ele>
        <time>2020-08-30T07:02:54Z</time>
      </trkpt>
      <trkpt lat="42.72034" lon="1.86664">
        <ele>1009.3</ele>
        <time>2020-08-30T07:03:09Z</time>
      </trkpt>
      <trkpt lat="42.7202" lon="1.86508">
        <ele>1005</ele>
        <time>2020-08-30T07:03:24Z</time>
      </trkpt>
      <trkpt lat="42.72056" lon="1.86348">
        <ele>999.6</ele>
        <time>2020-08-30T07:03:39Z</time>
      </trkpt>
      <trkpt lat="42.7204" lon="1.86201">
        <ele>993.7</ele>
        <time>2020-08-30T07:03:54Z</time>
      </trkpt>
      <trkpt lat="42.72066" lon="1.86031">
        <ele>985.4</ele>
        <time>2020-08-30T07:04:09Z</time>
      </trkpt>
      <trkpt lat="42.72133" lon="1.85922">
        <ele>978.4</ele>
        <time>2020-08-30T07:04:19Z</time>
      </trkpt>
      <trkpt lat="42.72226" lon="1.85852">
        <ele>972</ele>
        <time>2020-08-30T07:04:29Z</time>
      </trkpt>
      <trkpt lat="42.72281" lon="1.85735">
        <ele>967.2</ele>
        <time>2020-08-30T07:04:49Z</time>
      </trkpt>
      <trkpt lat="42.72336" lon="1.85629">
        <ele>965.4</ele>
        <time>2020-08-30T07:05:59Z</time>
      </trkpt>
      <trkpt lat="42.7237" lon="1.85509">
        <ele>969.4</ele>
        <time>2020-08-30T07:07:07Z</time>
      </trkpt>
      <trkpt lat="42.72431" lon="1.85403">
        <ele>973.7</ele>
        <time>2020-08-30T07:08:14Z</time>
      </trkpt>
      <trkpt lat="42.725" lon="1.85315">
        <ele>980.7</ele>
        <time>2020-08-30T07:09:19Z</time>
      </trkpt>
      <trkpt lat="42.72566" lon="1.85223">
        <ele>988.6</ele>
        <time>2020-08-30T07:10:26Z</time>
      </trkpt>
      <trkpt lat="42.72645" lon="1.85152">
        <ele>992.2</ele>
        <time>2020-08-30T07:11:31Z</time>
      </trkpt>
      <trkpt lat="42.72705" lon="1.85047">
        <ele>997.5</ele>
        <time>2020-08-30T07:12:38Z</time>
      </trkpt>
      <trkpt lat="42.72779" lon="1.84965">
        <ele>1003</ele>
        <time>2020-08-30T07:13:45Z</time>
      </trkpt>
      <trkpt lat="42.72847" lon="1.84871">
        <ele>1010.4</ele>
        <time>2020-08-30T07:14:51Z</time>
      </trkpt>
      <trkpt lat="42.72924" lon="1.84802">
        <ele>1017</ele>
        <time>2020-08-30T07:15:56Z</time>
      </trkpt>
      <trkpt lat="42.73014" lon="1.8478">
        <ele>1023.9</ele>
        <time>2020-08-30T07:20:09Z</time>
      </trkpt>
      <trkpt lat="42.73075" lon="1.84688">
        <ele>1026.2</ele>
        <time>2020-08-30T07:20:59Z</time>
      </trkpt>
      <trkpt lat="42.73158" lon="1.8462">
        <ele>1028.6</ele>
        <time>2020-08-30T07:22:11Z</time>
      </trkpt>
      <trkpt lat="42.73243" lon="1.84562">
        <ele>1030.8</ele>
        <time>2020-08-30T07:23:14Z</time>
      </trkpt>
      <trkpt lat="42.73314" lon="1.84475">
        <ele>1033.7</ele>
        <time>2020-08-30T07:24:22Z</time>
      </trkpt>
      <trkpt lat="42.73367" lon="1.84363">
        <ele>1036.7</ele>
        <time>2020-08-30T07:25:30Z</time>
      </trkpt>
      <trkpt lat="42.73434" lon="1.84269">
        <ele>1039.9</ele>
        <time>2020-08-30T07:26:42Z</time>
      </trkpt>
      <trkpt lat="42.7349" lon="1.84161">
        <ele>1047.6</ele>
        <time>2020-08-30T07:27:56Z</time>
      </trkpt>
      <trkpt lat="42.73529" lon="1.84044">
        <ele>1059.3</ele>
        <time>2020-08-30T07:29:06Z</time>
      </trkpt>
      <trkpt lat="42.73555" lon="1.83916">
        <ele>1068.8</ele>
        <time>2020-08-30T07:30:18Z</time>
      </trkpt>
      <trkpt lat="42.73602" lon="1.838">
        <ele>1076.4</ele>
        <time>2020-08-30T07:31:30Z</time>
      </trkpt>
      <trkpt lat="42.73638" lon="1.83677">
        <ele>1082.3</ele>
        <time>2020-08-30T07:32:40Z</time>
      </trkpt>
      <trkpt lat="42.73652" lon="1.83547">
        <ele>1087</ele>
        <time>2020-08-30T07:33:51Z</time>
      </trkpt>
      <trkpt lat="42.73677" lon="1.83429">
        <ele>1091.6</ele>
        <time>2020-08-30T07:35:00Z</time>
      </trkpt>
      <trkpt lat="42.7377" lon="1.83389">
        <ele>1097.9</ele>
        <time>2020-08-30T07:36:15Z</time>
      </trkpt>
      <trkpt lat="42.7386" lon="1.83352">
        <ele>1112.2</ele>
        <time>2020-08-30T07:37:28Z</time>
      </trkpt>
      <trkpt lat="42.73955" lon="1.83367">
        <ele>1126.1</ele>
        <time>2020-08-30T07:38:39Z</time>
      </trkpt>
      <trkpt lat="42.74053" lon="1.8338">
        <ele>1138.2</ele>
        <time>2020-08-30T07:39:57Z</time>
      </trkpt>
      <trkpt lat="42.74139" lon="1.8343">
        <ele>1146.9</ele>
        <time>2020-08-30T07:41:10Z</time>
      </trkpt>
      <trkpt lat="42.74218" lon="1.83502">
        <ele>1153.7</ele>
        <time>2020-08-30T07:42:22Z</time>
      </trkpt>
      <trkpt lat="42.74286" lon="1.83591">
        <ele>1160.4</ele>
        <time>2020-08-30T07:43:35Z</time>
      </trkpt>
      <trkpt lat="42.74364" lon="1.83664">
        <ele>1166.5</ele>
        <time>2020-08-30T07:44:47Z</time>
      </trkpt>
      <trkpt lat="42.74452" lon="1.83713">
        <ele>1172.6</ele>
        <time>2020-08-30T07:45:54Z</time>
      </trkpt>
      <trkpt lat="42.74526" lon="1.83798">
        <ele>1179.5</ele>
        <time>2020-08-30T07:47:04Z</time>
      </trkpt>
      <trkpt lat="42.74582" lon="1.83904">
        <ele>1186.5</ele>
        <time>2020-08-30T07:48:15Z</time>
      </trkpt>
      <trkpt lat="42.74619" lon="1.84019">
        <ele>1192.8</ele>
        <time>2020-08-30T07:49:26Z</time>
      </trkpt>
      <trkpt lat="42.74653" lon="1.84144">
        <ele>1198.5</ele>
        <time>2020-08-30T07:50:33Z</time>
      </trkpt>
      <trkpt lat="42.74717" lon="1.84237">
        <ele>1205</ele>
        <time>2020-08-30T07:51:42Z</time>
      </trkpt>
      <trkpt lat="42.74791" lon="1.84321">
        <ele>1214.1</ele>
        <time>2020-08-30T07:53:16Z</time>
      </trkpt>
      <trkpt lat="42.74877" lon="1.84371">
        <ele>1226.3</ele>
        <time>2020-08-30T07:54:36Z</time>
      </trkpt>
      <trkpt lat="42.74972" lon="1.84383">
        <ele>1258.7</ele>
        <time>2020-08-30T07:56:01Z</time>
      </trkpt>
      <trkpt lat="42.75043" lon="1.84464">
        <ele>1284</ele>
        <time>2020-08-30T07:58:35Z</time>
      </trkpt>
      <trkpt lat="42.75091" lon="1.84353">
        <ele>1292.7</ele>
        <time>2020-08-30T08:00:46Z</time>
      </trkpt>
      <trkpt lat="42.75102" lon="1.84482">
        <ele>1299.5</ele>
        <time>2020-08-30T08:02:34Z</time>
      </trkpt>
      <trkpt lat="42.75113" lon="1.84612">
        <ele>1303.1</ele>
        <time>2020-08-30T08:03:48Z</time>
      </trkpt>
      <trkpt lat="42.75115" lon="1.84739">
        <ele>1306.8</ele>
        <time>2020-08-30T08:04:58Z</time>
      </trkpt>
      <trkpt lat="42.75146" lon="1.84624">
        <ele>1312.5</ele>
        <time>2020-08-30T08:06:05Z</time>
      </trkpt>
      <trkpt lat="42.7517" lon="1.84501">
        <ele>1319.5</ele>
        <time>2020-08-30T08:07:20Z</time>
      </trkpt>
      <trkpt lat="42.75241" lon="1.84417">
        <ele>1332</ele>
        <time>2020-08-30T08:08:42Z</time>
      </trkpt>
      <trkpt lat="42.75234" lon="1.8429">
        <ele>1351.9</ele>
        <time>2020-08-30T08:10:03Z</time>
      </trkpt>
      <trkpt lat="42.75264" lon="1.84167">
        <ele>1364.1</ele>
        <time>2020-08-30T08:11:23Z</time>
      </trkpt>
      <trkpt lat="42.75322" lon="1.84063">
        <ele>1372.8</ele>
        <time>2020-08-30T08:12:43Z</time>
      </trkpt>
      <trkpt lat="42.75369" lon="1.83953">
        <ele>1379.8</ele>
        <time>2020-08-30T08:14:01Z</time>
      </trkpt>
      <trkpt lat="42.75361" lon="1.83828">
        <ele>1386.3</ele>
        <time>2020-08-30T08:15:24Z</time>
      </trkpt>
      <trkpt lat="42.75441" lon="1.83765">
        <ele>1392</ele>
        <time>2020-08-30T08:16:34Z</time>
      </trkpt>
      <trkpt lat="42.75524" lon="1.83835">
        <ele>1398.2</ele>
        <time>2020-08-30T08:17:49Z</time>
      </trkpt>
      <trkpt lat="42.75571" lon="1.83953">
        <ele>1401.9</ele>
        <time>2020-08-30T08:18:54Z</time>
      </trkpt>
      <trkpt lat="42.75618" lon="1.84065">
        <ele>1405.2</ele>
        <time>2020-08-30T08:20:06Z</time>
      </trkpt>
      <trkpt lat="42.75631" lon="1.84192">
        <ele>1411.1</ele>
        <time>2020-08-30T08:23:53Z</time>
      </trkpt>
      <trkpt lat="42.75628" lon="1.84315">
        <ele>1413.3</ele>
        <time>2020-08-30T08:24:18Z</time>
      </trkpt>
      <trkpt lat="42.75633" lon="1.84467">
        <ele>1415.5</ele>
        <time>2020-08-30T08:24:43Z</time>
      </trkpt>
      <trkpt lat="42.75648" lon="1.84608">
        <ele>1416.2</ele>
        <time>2020-08-30T08:25:03Z</time>
      </trkpt>
      <trkpt lat="42.75671" lon="1.84764">
        <ele>1416.6</ele>
        <time>2020-08-30T08:25:23Z</time>
      </trkpt>
      <trkpt lat="42.7572" lon="1.84903">
        <ele>1417.3</ele>
        <time>2020-08-30T08:25:43Z</time>
      </trkpt>
      <trkpt lat="42.75804" lon="1.85">
        <ele>1417.6</ele>
        <time>2020-08-30T08:26:03Z</time>
      </trkpt>
      <trkpt lat="42.75915" lon="1.85023">
        <ele>1419.2</ele>
        <time>2020-08-30T08:26:23Z</time>
      </trkpt>
      <trkpt lat="42.76006" lon="1.85075">
        <ele>1420.9</ele>
        <time>2020-08-30T08:26:43Z</time>
      </trkpt>
      <trkpt lat="42.76114" lon="1.85159">
        <ele>1420.5</ele>
        <time>2020-08-30T08:27:03Z</time>
      </trkpt>
      <trkpt lat="42.7621" lon="1.85259">
        <ele>1419.2</ele>
        <time>2020-08-30T08:28:30Z</time>
      </trkpt>
      <trkpt lat="42.76302" lon="1.85192">
        <ele>1417.1</ele>
        <time>2020-08-30T08:28:44Z</time>
      </trkpt>
      <trkpt lat="42.76401" lon="1.85149">
        <ele>1413.4</ele>
        <time>2020-08-30T08:28:59Z</time>
      </trkpt>
      <trkpt lat="42.76508" lon="1.85256">
        <ele>1397.1</ele>
        <time>2020-08-30T08:29:14Z</time>
      </trkpt>
      <trkpt lat="42.76582" lon="1.85185">
        <ele>1391.1</ele>
        <time>2020-08-30T08:29:29Z</time>
      </trkpt>
      <trkpt lat="42.76617" lon="1.85067">
        <ele>1388.6</ele>
        <time>2020-08-30T08:30:02Z</time>
      </trkpt>
      <trkpt lat="42.76549" lon="1.84953">
        <ele>1373.5</ele>
        <time>2020-08-30T08:30:22Z</time>
      </trkpt>
      <trkpt lat="42.76455" lon="1.84914">
        <ele>1368.6</ele>
        <time>2020-08-30T08:30:37Z</time>
      </trkpt>
      <trkpt lat="42.76359" lon="1.84858">
        <ele>1361.6</ele>
        <time>2020-08-30T08:33:04Z</time>
      </trkpt>
      <trkpt lat="42.76263" lon="1.84862">
        <ele>1357.4</ele>
        <time>2020-08-30T08:33:24Z</time>
      </trkpt>
      <trkpt lat="42.76176" lon="1.8491">
        <ele>1354</ele>
        <time>2020-08-30T08:33:39Z</time>
      </trkpt>
      <trkpt lat="42.76059" lon="1.84874">
        <ele>1352.9</ele>
        <time>2020-08-30T08:33:59Z</time>
      </trkpt>
      <trkpt lat="42.75972" lon="1.84779">
        <ele>1350.9</ele>
        <time>2020-08-30T08:34:14Z</time>
      </trkpt>
      <trkpt lat="42.75895" lon="1.84679">
        <ele>1349.1</ele>
        <time>2020-08-30T08:34:29Z</time>
      </trkpt>
      <trkpt lat="42.75865" lon="1.84561">
        <ele>1344.3</ele>
        <time>2020-08-30T08:34:44Z</time>
      </trkpt>
      <trkpt lat="42.75915" lon="1.84431">
        <ele>1336.3</ele>
        <time>2020-08-30T08:35:04Z</time>
      </trkpt>
      <trkpt lat="42.75954" lon="1.84314">
        <ele>1331</ele>
        <time>2020-08-30T08:35:19Z</time>
      </trkpt>
      <trkpt lat="42.75966" lon="1.84172">
        <ele>1322.1</ele>
        <time>2020-08-30T08:35:34Z</time>
      </trkpt>
      <trkpt lat="42.75968" lon="1.84046">
        <ele>1314.3</ele>
        <time>2020-08-30T08:35:49Z</time>
      </trkpt>
      <trkpt lat="42.75953" lon="1.83902">
        <ele>1307.8</ele>
        <time>2020-08-30T08:36:04Z</time>
      </trkpt>
      <trkpt lat="42.75929" lon="1.83777">
        <ele>1295.1</ele>
        <time>2020-08-30T08:36:19Z</time>
      </trkpt>
      <trkpt lat="42.7588" lon="1.83622">
        <ele>1283.7</ele>
        <time>2020-08-30T08:36:34Z</time>
      </trkpt>
      <trkpt lat="42.75794" lon="1.83509">
        <ele>1285.2</ele>
        <time>2020-08-30T08:36:49Z</time>
      </trkpt>
      <trkpt lat="42.75739" lon="1.83358">
        <ele>1285.8</ele>
        <time>2020-08-30T08:37:04Z</time>
      </trkpt>
      <trkpt lat="42.75707" lon="1.83209">
        <ele>1283.2</ele>
        <time>2020-08-30T08:37:19Z</time>
      </trkpt>
      <trkpt lat="42.7565" lon="1.83073">
        <ele>1273.3</ele>
        <time>2020-08-30T08:37:34Z</time>
      </trkpt>
      <trkpt lat="42.75633" lon="1.82898">
        <ele>1263.4</ele>
        <time>2020-08-30T08:37:49Z</time>
      </trkpt>
      <trkpt lat="42.75596" lon="1.82785">
        <ele>1260.9</ele>
        <time>2020-08-30T08:37:59Z</time>
      </trkpt>
      <trkpt lat="42.75628" lon="1.82642">
        <ele>1261.8</ele>
        <time>2020-08-30T08:38:19Z</time>
      </trkpt>
      <trkpt lat="42.7571" lon="1.82591">
        <ele>1256.1</ele>
        <time>2020-08-30T08:38:34Z</time>
      </trkpt>
      <trkpt lat="42.75813" lon="1.82539">
        <ele>1249.9</ele>
        <time>2020-08-30T08:38:49Z</time>
      </trkpt>
      <trkpt lat="42.75893" lon="1.82428">
        <ele>1249.5</ele>
        <time>2020-08-30T08:39:04Z</time>
      </trkpt>
      <trkpt lat="42.7592" lon="1.82248">
        <ele>1246.6</ele>
        <time>2020-08-30T08:39:19Z</time>
      </trkpt>
      <trkpt lat="42.75931" lon="1.82122">
        <ele>1235.9</ele>
        <time>2020-08-30T08:39:29Z</time>
      </trkpt>
      <trkpt lat="42.75914" lon="1.81999">
        <ele>1231.3</ele>
        <time>2020-08-30T08:39:39Z</time>
      </trkpt>
      <trkpt lat="42.75844" lon="1.81858">
        <ele>1221.1</ele>
        <time>2020-08-30T08:39:54Z</time>
      </trkpt>
      <trkpt lat="42.7575" lon="1.81775">
        <ele>1212.2</ele>
        <time>2020-08-30T08:40:09Z</time>
      </trkpt>
      <trkpt lat="42.75735" lon="1.81646">
        <ele>1210.1</ele>
        <time>2020-08-30T08:40:24Z</time>
      </trkpt>
      <trkpt lat="42.75765" lon="1.81513">
        <ele>1204.9</ele>
        <time>2020-08-30T08:40:39Z</time>
      </trkpt>
      <trkpt lat="42.75692" lon="1.81423">
        <ele>1198.3</ele>
        <time>2020-08-30T08:40:54Z</time>
      </trkpt>
      <trkpt lat="42.7565" lon="1.8131">
        <ele>1194.1</ele>
        <time>2020-08-30T08:41:14Z</time>
      </trkpt>
      <trkpt lat="42.75668" lon="1.81173">
        <ele>1182.6</ele>
        <time>2020-08-30T08:41:29Z</time>
      </trkpt>
      <trkpt lat="42.75775" lon="1.81064">
        <ele>1180.6</ele>
        <time>2020-08-30T08:41:54Z</time>
      </trkpt>
      <trkpt lat="42.75875" lon="1.81015">
        <ele>1176.9</ele>
        <time>2020-08-30T08:42:09Z</time>
      </trkpt>
      <trkpt lat="42.7598" lon="1.80955">
        <ele>1171.9</ele>
        <time>2020-08-30T08:42:24Z</time>
      </trkpt>
      <trkpt lat="42.76022" lon="1.80801">
        <ele>1170.1</ele>
        <time>2020-08-30T08:42:39Z</time>
      </trkpt>
      <trkpt lat="42.75935" lon="1.8071">
        <ele>1158.2</ele>
        <time>2020-08-30T08:42:54Z</time>
      </trkpt>
      <trkpt lat="42.75941" lon="1.80549">
        <ele>1147.2</ele>
        <time>2020-08-30T08:43:14Z</time>
      </trkpt>
      <trkpt lat="42.75987" lon="1.80403">
        <ele>1143.6</ele>
        <time>2020-08-30T08:43:29Z</time>
      </trkpt>
      <trkpt lat="42.76059" lon="1.80287">
        <ele>1130.7</ele>
        <time>2020-08-30T08:43:44Z</time>
      </trkpt>
      <trkpt lat="42.76142" lon="1.80157">
        <ele>1119.2</ele>
        <time>2020-08-30T08:43:59Z</time>
      </trkpt>
      <trkpt lat="42.76236" lon="1.80047">
        <ele>1105.8</ele>
        <time>2020-08-30T08:44:14Z</time>
      </trkpt>
      <trkpt lat="42.76231" lon="1.79918">
        <ele>1099.5</ele>
        <time>2020-08-30T08:44:29Z</time>
      </trkpt>
      <trkpt lat="42.76157" lon="1.79809">
        <ele>1094.2</ele>
        <time>2020-08-30T08:44:44Z</time>
      </trkpt>
      <trkpt lat="42.76092" lon="1.79682">
        <ele>1088.8</ele>
        <time>2020-08-30T08:44:59Z</time>
      </trkpt>
      <trkpt lat="42.76082" lon="1.7954">
        <ele>1085.4</ele>
        <time>2020-08-30T08:45:14Z</time>
      </trkpt>
      <trkpt lat="42.75971" lon="1.79467">
        <ele>1080.7</ele>
        <time>2020-08-30T08:45:29Z</time>
      </trkpt>
      <trkpt lat="42.75873" lon="1.79451">
        <ele>1085.1</ele>
        <time>2020-08-30T08:45:44Z</time>
      </trkpt>
      <trkpt lat="42.75976" lon="1.79448">
        <ele>1076.1</ele>
        <time>2020-08-30T08:49:58Z</time>
      </trkpt>
      <trkpt lat="42.76085" lon="1.79492">
        <ele>1073</ele>
        <time>2020-08-30T08:50:18Z</time>
      </trkpt>
      <trkpt lat="42.76127" lon="1.79646">
        <ele>1060.1</ele>
        <time>2020-08-30T08:53:25Z</time>
      </trkpt>
      <trkpt lat="42.76208" lon="1.79742">
        <ele>1057.8</ele>
        <time>2020-08-30T08:53:40Z</time>
      </trkpt>
      <trkpt lat="42.76313" lon="1.79839">
        <ele>1054.3</ele>
        <time>2020-08-30T08:53:55Z</time>
      </trkpt>
      <trkpt lat="42.76362" lon="1.79989">
        <ele>1047.9</ele>
        <time>2020-08-30T08:54:10Z</time>
      </trkpt>
      <trkpt lat="42.76355" lon="1.80156">
        <ele>1039.1</ele>
        <time>2020-08-30T08:54:25Z</time>
      </trkpt>
      <trkpt lat="42.76267" lon="1.80285">
        <ele>1030.6</ele>
        <time>2020-08-30T08:54:40Z</time>
      </trkpt>
      <trkpt lat="42.76204" lon="1.80438">
        <ele>1023.1</ele>
        <time>2020-08-30T08:54:55Z</time>
      </trkpt>
      <trkpt lat="42.76244" lon="1.8055">
        <ele>1018.8</ele>
        <time>2020-08-30T08:55:15Z</time>
      </trkpt>
      <trkpt lat="42.76331" lon="1.80661">
        <ele>1008</ele>
        <time>2020-08-30T08:55:30Z</time>
      </trkpt>
      <trkpt lat="42.76348" lon="1.80835">
        <ele>1003.3</ele>
        <time>2020-08-30T08:55:45Z</time>
      </trkpt>
      <trkpt lat="42.76362" lon="1.81011">
        <ele>997</ele>
        <time>2020-08-30T08:56:00Z</time>
      </trkpt>
      <trkpt lat="42.76357" lon="1.81166">
        <ele>994.8</ele>
        <time>2020-08-30T08:56:15Z</time>
      </trkpt>
      <trkpt lat="42.76421" lon="1.81036">
        <ele>981.1</ele>
        <time>2020-08-30T08:56:49Z</time>
      </trkpt>
      <trkpt lat="42.76422" lon="1.80862">
        <ele>978</ele>
        <time>2020-08-30T08:57:04Z</time>
      </trkpt>
      <trkpt lat="42.76423" lon="1.80709">
        <ele>971.7</ele>
        <time>2020-08-30T08:57:19Z</time>
      </trkpt>
      <trkpt lat="42.76447" lon="1.80844">
        <ele>962</ele>
        <time>2020-08-30T08:57:44Z</time>
      </trkpt>
      <trkpt lat="42.76486" lon="1.80983">
        <ele>956.3</ele>
        <time>2020-08-30T08:57:59Z</time>
      </trkpt>
      <trkpt lat="42.76551" lon="1.81077">
        <ele>949.7</ele>
        <time>2020-08-30T08:58:45Z</time>
      </trkpt>
      <trkpt lat="42.7662" lon="1.81208">
        <ele>941.8</ele>
        <time>2020-08-30T08:59:05Z</time>
      </trkpt>
      <trkpt lat="42.76646" lon="1.8134">
        <ele>935.1</ele>
        <time>2020-08-30T08:59:20Z</time>
      </trkpt>
      <trkpt lat="42.76654" lon="1.8148">
        <ele>924.9</ele>
        <time>2020-08-30T08:59:40Z</time>
      </trkpt>
      <trkpt lat="42.76705" lon="1.816">
        <ele>921.3</ele>
        <time>2020-08-30T08:59:55Z</time>
      </trkpt>
      <trkpt lat="42.76726" lon="1.81474">
        <ele>914.3</ele>
        <time>2020-08-30T09:00:15Z</time>
      </trkpt>
      <trkpt lat="42.76752" lon="1.81303">
        <ele>907.6</ele>
        <time>2020-08-30T09:00:30Z</time>
      </trkpt>
      <trkpt lat="42.76753" lon="1.81136">
        <ele>900.5</ele>
        <time>2020-08-30T09:00:45Z</time>
      </trkpt>
      <trkpt lat="42.76757" lon="1.8096">
        <ele>898.8</ele>
        <time>2020-08-30T09:01:00Z</time>
      </trkpt>
      <trkpt lat="42.76822" lon="1.80805">
        <ele>896</ele>
        <time>2020-08-30T09:01:15Z</time>
      </trkpt>
      <trkpt lat="42.76844" lon="1.80683">
        <ele>888.8</ele>
        <time>2020-08-30T09:01:30Z</time>
      </trkpt>
      <trkpt lat="42.76898" lon="1.80578">
        <ele>882.3</ele>
        <time>2020-08-30T09:01:45Z</time>
      </trkpt>
      <trkpt lat="42.76884" lon="1.80437">
        <ele>867.9</ele>
        <time>2020-08-30T09:02:10Z</time>
      </trkpt>
      <trkpt lat="42.76905" lon="1.80268">
        <ele>865.7</ele>
        <time>2020-08-30T09:02:30Z</time>
      </trkpt>
      <trkpt lat="42.76929" lon="1.80104">
        <ele>864.4</ele>
        <time>2020-08-30T09:02:45Z</time>
      </trkpt>
      <trkpt lat="42.76932" lon="1.7998">
        <ele>861.9</ele>
        <time>2020-08-30T09:02:55Z</time>
      </trkpt>
      <trkpt lat="42.76923" lon="1.79856">
        <ele>860.5</ele>
        <time>2020-08-30T09:03:05Z</time>
      </trkpt>
      <trkpt lat="42.76882" lon="1.79717">
        <ele>855.7</ele>
        <time>2020-08-30T09:03:20Z</time>
      </trkpt>
      <trkpt lat="42.76865" lon="1.79591">
        <ele>860</ele>
        <time>2020-08-30T09:03:50Z</time>
      </trkpt>
      <trkpt lat="42.76869" lon="1.79466">
        <ele>860.4</ele>
        <time>2020-08-30T09:04:30Z</time>
      </trkpt>
      <trkpt lat="42.76866" lon="1.79338">
        <ele>858.8</ele>
        <time>2020-08-30T09:05:05Z</time>
      </trkpt>
      <trkpt lat="42.76819" lon="1.79222">
        <ele>855.5</ele>
        <time>2020-08-30T09:06:08Z</time>
      </trkpt>
      <trkpt lat="42.76817" lon="1.79092">
        <ele>854.3</ele>
        <time>2020-08-30T09:07:21Z</time>
      </trkpt>
      <trkpt lat="42.76833" lon="1.78968">
        <ele>853.9</ele>
        <time>2020-08-30T09:08:08Z</time>
      </trkpt>
      <trkpt lat="42.76848" lon="1.78843">
        <ele>852.1</ele>
        <time>2020-08-30T09:08:28Z</time>
      </trkpt>
      <trkpt lat="42.7681" lon="1.78715">
        <ele>851.6</ele>
        <time>2020-08-30T09:08:53Z</time>
      </trkpt>
      <trkpt lat="42.76721" lon="1.78662">
        <ele>851.6</ele>
        <time>2020-08-30T09:09:13Z</time>
      </trkpt>
      <trkpt lat="42.76657" lon="1.78547">
        <ele>851.5</ele>
        <time>2020-08-30T09:29:59Z</time>
      </trkpt>
      <trkpt lat="42.76697" lon="1.78396">
        <ele>850.8</ele>
        <time>2020-08-30T09:30:19Z</time>
      </trkpt>
      <trkpt lat="42.76713" lon="1.7827">
        <ele>849.8</ele>
        <time>2020-08-30T09:30:39Z</time>
      </trkpt>
      <trkpt lat="42.76622" lon="1.78217">
        <ele>849.7</ele>
        <time>2020-08-30T09:31:28Z</time>
      </trkpt>
      <trkpt lat="42.76527" lon="1.78175">
        <ele>849.1</ele>
        <time>2020-08-30T09:32:28Z</time>
      </trkpt>
      <trkpt lat="42.76532" lon="1.78039">
        <ele>849.4</ele>
        <time>2020-08-30T09:33:13Z</time>
      </trkpt>
      <trkpt lat="42.76583" lon="1.77931">
        <ele>850.2</ele>
        <time>2020-08-30T09:33:43Z</time>
      </trkpt>
      <trkpt lat="42.76642" lon="1.77811">
        <ele>851.2</ele>
        <time>2020-08-30T09:34:13Z</time>
      </trkpt>
      <trkpt lat="42.76698" lon="1.7769">
        <ele>851.6</ele>
        <time>2020-08-30T09:34:43Z</time>
      </trkpt>
      <trkpt lat="42.76736" lon="1.77575">
        <ele>851.3</ele>
        <time>2020-08-30T09:35:08Z</time>
      </trkpt>
      <trkpt lat="42.76776" lon="1.77466">
        <ele>851.1</ele>
        <time>2020-08-30T09:35:33Z</time>
      </trkpt>
      <trkpt lat="42.76821" lon="1.77334">
        <ele>850.1</ele>
        <time>2020-08-30T09:36:03Z</time>
      </trkpt>
      <trkpt lat="42.76913" lon="1.77308">
        <ele>849.8</ele>
        <time>2020-08-30T09:36:33Z</time>
      </trkpt>
      <trkpt lat="42.76971" lon="1.77209">
        <ele>851.2</ele>
        <time>2020-08-30T09:37:03Z</time>
      </trkpt>
      <trkpt lat="42.76979" lon="1.77081">
        <ele>850.8</ele>
        <time>2020-08-30T09:37:28Z</time>
      </trkpt>
      <trkpt lat="42.77008" lon="1.76955">
        <ele>850.4</ele>
        <time>2020-08-30T09:37:53Z</time>
      </trkpt>
      <trkpt lat="42.77051" lon="1.7684">
        <ele>850.3</ele>
        <time>2020-08-30T09:38:18Z</time>
      </trkpt>
      <trkpt lat="42.77104" lon="1.76737">
        <ele>850.1</ele>
        <time>2020-08-30T09:38:44Z</time>
      </trkpt>
      <trkpt lat="42.77168" lon="1.76647">
        <ele>849.9</ele>
        <time>2020-08-30T09:39:09Z</time>
      </trkpt>
      <trkpt lat="42.77219" lon="1.76532">
        <ele>849.5</ele>
        <time>2020-08-30T09:39:34Z</time>
      </trkpt>
      <trkpt lat="42.77272" lon="1.76427">
        <ele>849.2</ele>
        <time>2020-08-30T09:39:59Z</time>
      </trkpt>
      <trkpt lat="42.7731" lon="1.76309">
        <ele>849</ele>
        <time>2020-08-30T09:40:24Z</time>
      </trkpt>
      <trkpt lat="42.77344" lon="1.76196">
        <ele>849</ele>
        <time>2020-08-30T09:40:59Z</time>
      </trkpt>
      <trkpt lat="42.77396" lon="1.76083">
        <ele>849.4</ele>
        <time>2020-08-30T09:42:05Z</time>
      </trkpt>
      <trkpt lat="42.77434" lon="1.7596">
        <ele>850.4</ele>
        <time>2020-08-30T09:43:07Z</time>
      </trkpt>
      <trkpt lat="42.77495" lon="1.75858">
        <ele>851.8</ele>
        <time>2020-08-30T09:44:13Z</time>
      </trkpt>
      <trkpt lat="42.77548" lon="1.75752">
        <ele>854.3</ele>
        <time>2020-08-30T09:45:20Z</time>
      </trkpt>
      <trkpt lat="42.77593" lon="1.75636">
        <ele>857</ele>
        <time>2020-08-30T09:46:28Z</time>
      </trkpt>
      <trkpt lat="42.77651" lon="1.75537">
        <ele>859.8</ele>
        <time>2020-08-30T09:47:33Z</time>
      </trkpt>
      <trkpt lat="42.77744" lon="1.75497">
        <ele>871.5</ele>
        <time>2020-08-30T09:50:42Z</time>
      </trkpt>
      <trkpt lat="42.77844" lon="1.75604">
        <ele>884.6</ele>
        <time>2020-08-30T09:56:46Z</time>
      </trkpt>
      <trkpt lat="42.77924" lon="1.7571">
        <ele>883.5</ele>
        <time>2020-08-30T09:57:01Z</time>
      </trkpt>
      <trkpt lat="42.7795" lon="1.75873">
        <ele>880.8</ele>
        <time>2020-08-30T09:57:16Z</time>
      </trkpt>
      <trkpt lat="42.77967" lon="1.76001">
        <ele>877</ele>
        <time>2020-08-30T09:57:26Z</time>
      </trkpt>
      <trkpt lat="42.78059" lon="1.75986">
        <ele>879.1</ele>
        <time>2020-08-30T09:58:01Z</time>
      </trkpt>
      <trkpt lat="42.78114" lon="1.75881">
        <ele>879.1</ele>
        <time>2020-08-30T09:58:36Z</time>
      </trkpt>
      <trkpt lat="42.78186" lon="1.75795">
        <ele>878.8</ele>
        <time>2020-08-30T09:59:22Z</time>
      </trkpt>
      <trkpt lat="42.7828" lon="1.75745">
        <ele>882.6</ele>
        <time>2020-08-30T10:00:07Z</time>
      </trkpt>
      <trkpt lat="42.78359" lon="1.75642">
        <ele>887.7</ele>
        <time>2020-08-30T10:00:42Z</time>
      </trkpt>
      <trkpt lat="42.78404" lon="1.7549">
        <ele>887.3</ele>
        <time>2020-08-30T10:01:02Z</time>
      </trkpt>
      <trkpt lat="42.78431" lon="1.75365">
        <ele>881.6</ele>
        <time>2020-08-30T10:01:22Z</time>
      </trkpt>
      <trkpt lat="42.78407" lon="1.75236">
        <ele>880.5</ele>
        <time>2020-08-30T10:01:47Z</time>
      </trkpt>
      <trkpt lat="42.78419" lon="1.7509">
        <ele>884.9</ele>
        <time>2020-08-30T10:02:17Z</time>
      </trkpt>
      <trkpt lat="42.78452" lon="1.74958">
        <ele>888.4</ele>
        <time>2020-08-30T10:02:42Z</time>
      </trkpt>
      <trkpt lat="42.78465" lon="1.74837">
        <ele>889</ele>
        <time>2020-08-30T10:03:17Z</time>
      </trkpt>
      <trkpt lat="42.78478" lon="1.74714">
        <ele>889.6</ele>
        <time>2020-08-30T10:03:52Z</time>
      </trkpt>
      <trkpt lat="42.7852" lon="1.74606">
        <ele>889.3</ele>
        <time>2020-08-30T10:04:27Z</time>
      </trkpt>
      <trkpt lat="42.78565" lon="1.74496">
        <ele>889.8</ele>
        <time>2020-08-30T10:05:02Z</time>
      </trkpt>
      <trkpt lat="42.78648" lon="1.74438">
        <ele>891.4</ele>
        <time>2020-08-30T10:05:49Z</time>
      </trkpt>
      <trkpt lat="42.78735" lon="1.74402">
        <ele>892.7</ele>
        <time>2020-08-30T10:06:46Z</time>
      </trkpt>
      <trkpt lat="42.78835" lon="1.74433">
        <ele>894.3</ele>
        <time>2020-08-30T10:07:49Z</time>
      </trkpt>
      <trkpt lat="42.78928" lon="1.74402">
        <ele>896.8</ele>
        <time>2020-08-30T10:08:45Z</time>
      </trkpt>
      <trkpt lat="42.78868" lon="1.74296">
        <ele>899.3</ele>
        <time>2020-08-30T10:09:39Z</time>
      </trkpt>
      <trkpt lat="42.78831" lon="1.74173">
        <ele>901</ele>
        <time>2020-08-30T10:10:29Z</time>
      </trkpt>
      <trkpt lat="42.78884" lon="1.74066">
        <ele>901.8</ele>
        <time>2020-08-30T10:11:14Z</time>
      </trkpt>
      <trkpt lat="42.78947" lon="1.73971">
        <ele>902.4</ele>
        <time>2020-08-30T10:11:59Z</time>
      </trkpt>
      <trkpt lat="42.79001" lon="1.73863">
        <ele>903.1</ele>
        <time>2020-08-30T10:12:44Z</time>
      </trkpt>
      <trkpt lat="42.79048" lon="1.73748">
        <ele>903.9</ele>
        <time>2020-08-30T10:13:29Z</time>
      </trkpt>
      <trkpt lat="42.79081" lon="1.73633">
        <ele>905</ele>
        <time>2020-08-30T10:14:14Z</time>
      </trkpt>
      <trkpt lat="42.7903" lon="1.73529">
        <ele>907</ele>
        <time>2020-08-30T10:15:17Z</time>
      </trkpt>
      <trkpt lat="42.78991" lon="1.73416">
        <ele>909.1</ele>
        <time>2020-08-30T10:16:12Z</time>
      </trkpt>
      <trkpt lat="42.79014" lon="1.73286">
        <ele>911.6</ele>
        <time>2020-08-30T10:17:12Z</time>
      </trkpt>
      <trkpt lat="42.79023" lon="1.73163">
        <ele>913.6</ele>
        <time>2020-08-30T10:18:01Z</time>
      </trkpt>
      <trkpt lat="42.78942" lon="1.73089">
        <ele>916.1</ele>
        <time>2020-08-30T10:18:58Z</time>
      </trkpt>
      <trkpt lat="42.78915" lon="1.7295">
        <ele>920</ele>
        <time>2020-08-30T10:20:04Z</time>
      </trkpt>
      <trkpt lat="42.78938" lon="1.72801">
        <ele>922.1</ele>
        <time>2020-08-30T10:20:29Z</time>
      </trkpt>
      <trkpt lat="42.78968" lon="1.72674">
        <ele>922.9</ele>
        <time>2020-08-30T10:20:49Z</time>
      </trkpt>
      <trkpt lat="42.78997" lon="1.72553">
        <ele>923.4</ele>
        <time>2020-08-30T10:21:04Z</time>
      </trkpt>
      <trkpt lat="42.79063" lon="1.72451">
        <ele>923.3</ele>
        <time>2020-08-30T10:21:19Z</time>
      </trkpt>
      <trkpt lat="42.79126" lon="1.72329">
        <ele>921.5</ele>
        <time>2020-08-30T10:21:34Z</time>
      </trkpt>
      <trkpt lat="42.79172" lon="1.72207">
        <ele>921.3</ele>
        <time>2020-08-30T10:21:49Z</time>
      </trkpt>
      <trkpt lat="42.7925" lon="1.72148">
        <ele>919.4</ele>
        <time>2020-08-30T10:22:04Z</time>
      </trkpt>
      <trkpt lat="42.79275" lon="1.71993">
        <ele>917.1</ele>
        <time>2020-08-30T10:22:19Z</time>
      </trkpt>
      <trkpt lat="42.79296" lon="1.71832">
        <ele>914.8</ele>
        <time>2020-08-30T10:22:34Z</time>
      </trkpt>
      <trkpt lat="42.79365" lon="1.71734">
        <ele>914.6</ele>
        <time>2020-08-30T10:22:59Z</time>
      </trkpt>
      <trkpt lat="42.79448" lon="1.71685">
        <ele>914.5</ele>
        <time>2020-08-30T10:24:08Z</time>
      </trkpt>
      <trkpt lat="42.7954" lon="1.71618">
        <ele>913.5</ele>
        <time>2020-08-30T10:24:38Z</time>
      </trkpt>
      <trkpt lat="42.79627" lon="1.71578">
        <ele>911.1</ele>
        <time>2020-08-30T10:24:53Z</time>
      </trkpt>
      <trkpt lat="42.79713" lon="1.71512">
        <ele>908.8</ele>
        <time>2020-08-30T10:25:08Z</time>
      </trkpt>
      <trkpt lat="42.79829" lon="1.71579">
        <ele>899.6</ele>
        <time>2020-08-30T10:25:28Z</time>
      </trkpt>
      <trkpt lat="42.79909" lon="1.7152">
        <ele>902.7</ele>
        <time>2020-08-30T10:25:58Z</time>
      </trkpt>
      <trkpt lat="42.79891" lon="1.71395">
        <ele>906.8</ele>
        <time>2020-08-30T10:26:46Z</time>
      </trkpt>
      <trkpt lat="42.79847" lon="1.71274">
        <ele>904.8</ele>
        <time>2020-08-30T10:29:23Z</time>
      </trkpt>
      <trkpt lat="42.79823" lon="1.71141">
        <ele>908.1</ele>
        <time>2020-08-30T10:30:32Z</time>
      </trkpt>
      <trkpt lat="42.79812" lon="1.71007">
        <ele>911.1</ele>
        <time>2020-08-30T10:31:31Z</time>
      </trkpt>
      <trkpt lat="42.79846" lon="1.70887">
        <ele>913.4</ele>
        <time>2020-08-30T10:32:20Z</time>
      </trkpt>
      <trkpt lat="42.79899" lon="1.70764">
        <ele>915.4</ele>
        <time>2020-08-30T10:32:40Z</time>
      </trkpt>
      <trkpt lat="42.79976" lon="1.70646">
        <ele>913.7</ele>
        <time>2020-08-30T10:32:55Z</time>
      </trkpt>
      <trkpt lat="42.80066" lon="1.70522">
        <ele>910.1</ele>
        <time>2020-08-30T10:33:10Z</time>
      </trkpt>
      <trkpt lat="42.80119" lon="1.70418">
        <ele>907.1</ele>
        <time>2020-08-30T10:33:20Z</time>
      </trkpt>
      <trkpt lat="42.80186" lon="1.70332">
        <ele>904.7</ele>
        <time>2020-08-30T10:33:40Z</time>
      </trkpt>
      <trkpt lat="42.8025" lon="1.70241">
        <ele>901.5</ele>
        <time>2020-08-30T10:34:28Z</time>
      </trkpt>
      <trkpt lat="42.80336" lon="1.70179">
        <ele>898.5</ele>
        <time>2020-08-30T10:35:14Z</time>
      </trkpt>
      <trkpt lat="42.80426" lon="1.70133">
        <ele>897.6</ele>
        <time>2020-08-30T11:07:12Z</time>
      </trkpt>
      <trkpt lat="42.80522" lon="1.70118">
        <ele>897.5</ele>
        <time>2020-08-30T11:07:32Z</time>
      </trkpt>
      <trkpt lat="42.80615" lon="1.70099">
        <ele>897.5</ele>
        <time>2020-08-30T11:07:57Z</time>
      </trkpt>
      <trkpt lat="42.80712" lon="1.70098">
        <ele>897.4</ele>
        <time>2020-08-30T11:08:37Z</time>
      </trkpt>
      <trkpt lat="42.80801" lon="1.70124">
        <ele>897.3</ele>
        <time>2020-08-30T11:09:21Z</time>
      </trkpt>
      <trkpt lat="42.80896" lon="1.70206">
        <ele>897.1</ele>
        <time>2020-08-30T11:09:36Z</time>
      </trkpt>
      <trkpt lat="42.81005" lon="1.70229">
        <ele>897.6</ele>
        <time>2020-08-30T11:09:51Z</time>
      </trkpt>
      <trkpt lat="42.81026" lon="1.70099">
        <ele>893.4</ele>
        <time>2020-08-30T11:10:20Z</time>
      </trkpt>
      <trkpt lat="42.81012" lon="1.69967">
        <ele>890.8</ele>
        <time>2020-08-30T11:11:20Z</time>
      </trkpt>
      <trkpt lat="42.81032" lon="1.69826">
        <ele>894.9</ele>
        <time>2020-08-30T11:12:47Z</time>
      </trkpt>
      <trkpt lat="42.81087" lon="1.69703">
        <ele>890.2</ele>
        <time>2020-08-30T11:13:07Z</time>
      </trkpt>
      <trkpt lat="42.81168" lon="1.69638">
        <ele>887</ele>
        <time>2020-08-30T11:13:27Z</time>
      </trkpt>
      <trkpt lat="42.81252" lon="1.69571">
        <ele>886.6</ele>
        <time>2020-08-30T11:13:57Z</time>
      </trkpt>
      <trkpt lat="42.81352" lon="1.69505">
        <ele>887.6</ele>
        <time>2020-08-30T11:14:27Z</time>
      </trkpt>
      <trkpt lat="42.81431" lon="1.69431">
        <ele>885.8</ele>
        <time>2020-08-30T11:14:47Z</time>
      </trkpt>
      <trkpt lat="42.81494" lon="1.69335">
        <ele>886</ele>
        <time>2020-08-30T11:15:12Z</time>
      </trkpt>
      <trkpt lat="42.81565" lon="1.69261">
        <ele>886.3</ele>
        <time>2020-08-30T11:15:37Z</time>
      </trkpt>
      <trkpt lat="42.81622" lon="1.69159">
        <ele>886.5</ele>
        <time>2020-08-30T11:16:02Z</time>
      </trkpt>
      <trkpt lat="42.81681" lon="1.69041">
        <ele>886</ele>
        <time>2020-08-30T11:16:27Z</time>
      </trkpt>
      <trkpt lat="42.81751" lon="1.68961">
        <ele>885.9</ele>
        <time>2020-08-30T11:16:57Z</time>
      </trkpt>
      <trkpt lat="42.81833" lon="1.68883">
        <ele>885.9</ele>
        <time>2020-08-30T11:17:42Z</time>
      </trkpt>
      <trkpt lat="42.81901" lon="1.68804">
        <ele>886.4</ele>
        <time>2020-08-30T11:18:22Z</time>
      </trkpt>
      <trkpt lat="42.81954" lon="1.68697">
        <ele>886.7</ele>
        <time>2020-08-30T11:19:07Z</time>
      </trkpt>
      <trkpt lat="42.82018" lon="1.68609">
        <ele>887</ele>
        <time>2020-08-30T11:19:52Z</time>
      </trkpt>
      <trkpt lat="42.8208" lon="1.6852">
        <ele>887.8</ele>
        <time>2020-08-30T11:20:39Z</time>
      </trkpt>
      <trkpt lat="42.82137" lon="1.68421">
        <ele>888.8</ele>
        <time>2020-08-30T11:21:24Z</time>
      </trkpt>
      <trkpt lat="42.82211" lon="1.68345">
        <ele>890.2</ele>
        <time>2020-08-30T11:22:10Z</time>
      </trkpt>
      <trkpt lat="42.823" lon="1.68277">
        <ele>893</ele>
        <time>2020-08-30T11:22:45Z</time>
      </trkpt>
      <trkpt lat="42.82381" lon="1.68212">
        <ele>893.8</ele>
        <time>2020-08-30T11:23:05Z</time>
      </trkpt>
      <trkpt lat="42.8246" lon="1.6814">
        <ele>894.2</ele>
        <time>2020-08-30T11:23:25Z</time>
      </trkpt>
      <trkpt lat="42.82557" lon="1.68051">
        <ele>894.6</ele>
        <time>2020-08-30T11:23:45Z</time>
      </trkpt>
      <trkpt lat="42.8266" lon="1.67955">
        <ele>893.3</ele>
        <time>2020-08-30T11:24:00Z</time>
      </trkpt>
      <trkpt lat="42.82761" lon="1.67874">
        <ele>891.6</ele>
        <time>2020-08-30T11:24:15Z</time>
      </trkpt>
      <trkpt lat="42.82848" lon="1.67789">
        <ele>889.2</ele>
        <time>2020-08-30T11:24:30Z</time>
      </trkpt>
      <trkpt lat="42.82946" lon="1.67693">
        <ele>881</ele>
        <time>2020-08-30T11:24:45Z</time>
      </trkpt>
      <trkpt lat="42.83046" lon="1.67604">
        <ele>876.9</ele>
        <time>2020-08-30T11:25:00Z</time>
      </trkpt>
      <trkpt lat="42.83138" lon="1.67559">
        <ele>873.1</ele>
        <time>2020-08-30T11:25:15Z</time>
      </trkpt>
      <trkpt lat="42.83229" lon="1.67517">
        <ele>867.8</ele>
        <time>2020-08-30T11:25:35Z</time>
      </trkpt>
      <trkpt lat="42.83332" lon="1.67459">
        <ele>865.8</ele>
        <time>2020-08-30T11:25:50Z</time>
      </trkpt>
      <trkpt lat="42.83433" lon="1.67395">
        <ele>865.7</ele>
        <time>2020-08-30T11:26:05Z</time>
      </trkpt>
      <trkpt lat="42.83527" lon="1.67327">
        <ele>867.2</ele>
        <time>2020-08-30T11:26:30Z</time>
      </trkpt>
      <trkpt lat="42.83624" lon="1.67275">
        <ele>861.6</ele>
        <time>2020-08-30T11:26:55Z</time>
      </trkpt>
      <trkpt lat="42.837" lon="1.6721">
        <ele>859.7</ele>
        <time>2020-08-30T11:27:20Z</time>
      </trkpt>
      <trkpt lat="42.83799" lon="1.67205">
        <ele>859.2</ele>
        <time>2020-08-30T11:28:20Z</time>
      </trkpt>
      <trkpt lat="42.83894" lon="1.67218">
        <ele>860.7</ele>
        <time>2020-08-30T11:28:50Z</time>
      </trkpt>
      <trkpt lat="42.83985" lon="1.67203">
        <ele>859.6</ele>
        <time>2020-08-30T11:29:10Z</time>
      </trkpt>
      <trkpt lat="42.84044" lon="1.67094">
        <ele>861.6</ele>
        <time>2020-08-30T11:30:10Z</time>
      </trkpt>
      <trkpt lat="42.84098" lon="1.66985">
        <ele>861.1</ele>
        <time>2020-08-30T11:30:30Z</time>
      </trkpt>
      <trkpt lat="42.84192" lon="1.66915">
        <ele>856.6</ele>
        <time>2020-08-30T11:30:40Z</time>
      </trkpt>
      <trkpt lat="42.84279" lon="1.6683">
        <ele>851.1</ele>
        <time>2020-08-30T11:30:50Z</time>
      </trkpt>
      <trkpt lat="42.84371" lon="1.6676">
        <ele>846</ele>
        <time>2020-08-30T11:31:00Z</time>
      </trkpt>
      <trkpt lat="42.8448" lon="1.66688">
        <ele>837.5</ele>
        <time>2020-08-30T11:31:10Z</time>
      </trkpt>
      <trkpt lat="42.84365" lon="1.66659">
        <ele>814.3</ele>
        <time>2020-08-30T11:31:40Z</time>
      </trkpt>
      <trkpt lat="42.84269" lon="1.6663">
        <ele>796.7</ele>
        <time>2020-08-30T11:31:50Z</time>
      </trkpt>
      <trkpt lat="42.84324" lon="1.66482">
        <ele>781.1</ele>
        <time>2020-08-30T11:32:05Z</time>
      </trkpt>
      <trkpt lat="42.84362" lon="1.66366">
        <ele>772.7</ele>
        <time>2020-08-30T11:32:15Z</time>
      </trkpt>
      <trkpt lat="42.84366" lon="1.66231">
        <ele>753.4</ele>
        <time>2020-08-30T11:32:40Z</time>
      </trkpt>
      <trkpt lat="42.84445" lon="1.66146">
        <ele>742.4</ele>
        <time>2020-08-30T11:32:50Z</time>
      </trkpt>
      <trkpt lat="42.84548" lon="1.66104">
        <ele>735.3</ele>
        <time>2020-08-30T11:33:00Z</time>
      </trkpt>
      <trkpt lat="42.8467" lon="1.6604">
        <ele>728</ele>
        <time>2020-08-30T11:33:15Z</time>
      </trkpt>
      <trkpt lat="42.8477" lon="1.6594">
        <ele>715.2</ele>
        <time>2020-08-30T11:33:30Z</time>
      </trkpt>
      <trkpt lat="42.84856" lon="1.65818">
        <ele>705.4</ele>
        <time>2020-08-30T11:33:45Z</time>
      </trkpt>
      <trkpt lat="42.84924" lon="1.65726">
        <ele>696.3</ele>
        <time>2020-08-30T11:33:55Z</time>
      </trkpt>
      <trkpt lat="42.84963" lon="1.65563">
        <ele>685.5</ele>
        <time>2020-08-30T11:34:10Z</time>
      </trkpt>
      <trkpt lat="42.84939" lon="1.65376">
        <ele>673.3</ele>
        <time>2020-08-30T11:34:25Z</time>
      </trkpt>
      <trkpt lat="42.84873" lon="1.65257">
        <ele>664.3</ele>
        <time>2020-08-30T11:34:35Z</time>
      </trkpt>
      <trkpt lat="42.84777" lon="1.65172">
        <ele>656.1</ele>
        <time>2020-08-30T11:34:45Z</time>
      </trkpt>
      <trkpt lat="42.84673" lon="1.65118">
        <ele>644.9</ele>
        <time>2020-08-30T11:34:55Z</time>
      </trkpt>
      <trkpt lat="42.84752" lon="1.64988">
        <ele>631.2</ele>
        <time>2020-08-30T11:35:15Z</time>
      </trkpt>
      <trkpt lat="42.84857" lon="1.64924">
        <ele>625.9</ele>
        <time>2020-08-30T11:35:25Z</time>
      </trkpt>
      <trkpt lat="42.84966" lon="1.6487">
        <ele>612.4</ele>
        <time>2020-08-30T11:35:35Z</time>
      </trkpt>
      <trkpt lat="42.8508" lon="1.64838">
        <ele>602.3</ele>
        <time>2020-08-30T11:35:45Z</time>
      </trkpt>
      <trkpt lat="42.8518" lon="1.64811">
        <ele>594.9</ele>
        <time>2020-08-30T11:35:55Z</time>
      </trkpt>
      <trkpt lat="42.85292" lon="1.64785">
        <ele>580.1</ele>
        <time>2020-08-30T11:36:10Z</time>
      </trkpt>
      <trkpt lat="42.85374" lon="1.64691">
        <ele>568</ele>
        <time>2020-08-30T11:36:45Z</time>
      </trkpt>
      <trkpt lat="42.85386" lon="1.64546">
        <ele>562.9</ele>
        <time>2020-08-30T11:36:59Z</time>
      </trkpt>
      <trkpt lat="42.85439" lon="1.6439">
        <ele>559.4</ele>
        <time>2020-08-30T11:37:14Z</time>
      </trkpt>
      <trkpt lat="42.85492" lon="1.64289">
        <ele>556.5</ele>
        <time>2020-08-30T11:37:24Z</time>
      </trkpt>
      <trkpt lat="42.8552" lon="1.64129">
        <ele>552.8</ele>
        <time>2020-08-30T11:37:39Z</time>
      </trkpt>
      <trkpt lat="42.85581" lon="1.64019">
        <ele>547.5</ele>
        <time>2020-08-30T11:37:54Z</time>
      </trkpt>
      <trkpt lat="42.85666" lon="1.63961">
        <ele>544.3</ele>
        <time>2020-08-30T11:38:09Z</time>
      </trkpt>
      <trkpt lat="42.85705" lon="1.63849">
        <ele>541.6</ele>
        <time>2020-08-30T11:38:24Z</time>
      </trkpt>
      <trkpt lat="42.8576" lon="1.63726">
        <ele>537.6</ele>
        <time>2020-08-30T11:38:44Z</time>
      </trkpt>
      <trkpt lat="42.85798" lon="1.63613">
        <ele>535.1</ele>
        <time>2020-08-30T11:38:59Z</time>
      </trkpt>
      <trkpt lat="42.85847" lon="1.63503">
        <ele>532.1</ele>
        <time>2020-08-30T11:39:14Z</time>
      </trkpt>
      <trkpt lat="42.85891" lon="1.63391">
        <ele>529.6</ele>
        <time>2020-08-30T11:39:29Z</time>
      </trkpt>
      <trkpt lat="42.85953" lon="1.63303">
        <ele>526.1</ele>
        <time>2020-08-30T11:39:44Z</time>
      </trkpt>
      <trkpt lat="42.85998" lon="1.63175">
        <ele>525.1</ele>
        <time>2020-08-30T11:40:04Z</time>
      </trkpt>
      <trkpt lat="42.86028" lon="1.63055">
        <ele>522.5</ele>
        <time>2020-08-30T11:40:19Z</time>
      </trkpt>
      <trkpt lat="42.86077" lon="1.6294">
        <ele>519.6</ele>
        <time>2020-08-30T11:40:34Z</time>
      </trkpt>
      <trkpt lat="42.86106" lon="1.62816">
        <ele>517.7</ele>
        <time>2020-08-30T11:40:49Z</time>
      </trkpt>
      <trkpt lat="42.86161" lon="1.62718">
        <ele>514.8</ele>
        <time>2020-08-30T11:41:04Z</time>
      </trkpt>
      <trkpt lat="42.86227" lon="1.62608">
        <ele>511.1</ele>
        <time>2020-08-30T11:41:24Z</time>
      </trkpt>
      <trkpt lat="42.86284" lon="1.62485">
        <ele>508.2</ele>
        <time>2020-08-30T11:41:44Z</time>
      </trkpt>
      <trkpt lat="42.86336" lon="1.62364">
        <ele>505.5</ele>
        <time>2020-08-30T11:42:04Z</time>
      </trkpt>
      <trkpt lat="42.8639" lon="1.62222">
        <ele>503.5</ele>
        <time>2020-08-30T11:42:24Z</time>
      </trkpt>
      <trkpt lat="42.86462" lon="1.62122">
        <ele>501.7</ele>
        <time>2020-08-30T11:42:39Z</time>
      </trkpt>
      <trkpt lat="42.86508" lon="1.62002">
        <ele>500.4</ele>
        <time>2020-08-30T11:42:54Z</time>
      </trkpt>
      <trkpt lat="42.86564" lon="1.61907">
        <ele>499.4</ele>
        <time>2020-08-30T11:43:09Z</time>
      </trkpt>
      <trkpt lat="42.86636" lon="1.61792">
        <ele>497.6</ele>
        <time>2020-08-30T11:43:29Z</time>
      </trkpt>
      <trkpt lat="42.86683" lon="1.61683">
        <ele>493.8</ele>
        <time>2020-08-30T11:43:49Z</time>
      </trkpt>
      <trkpt lat="42.86775" lon="1.61764">
        <ele>487.2</ele>
        <time>2020-08-30T11:44:14Z</time>
      </trkpt>
      <trkpt lat="42.86731" lon="1.61612">
        <ele>481.1</ele>
        <time>2020-08-30T11:44:49Z</time>
      </trkpt>
      <trkpt lat="42.86648" lon="1.6152">
        <ele>478.1</ele>
        <time>2020-08-30T11:45:04Z</time>
      </trkpt>
      <trkpt lat="42.86588" lon="1.61389">
        <ele>475</ele>
        <time>2020-08-30T11:45:19Z</time>
      </trkpt>
      <trkpt lat="42.86536" lon="1.61255">
        <ele>473.8</ele>
        <time>2020-08-30T11:45:34Z</time>
      </trkpt>
      <trkpt lat="42.86507" lon="1.61138">
        <ele>473.2</ele>
        <time>2020-08-30T11:45:49Z</time>
      </trkpt>
      <trkpt lat="42.86477" lon="1.61012">
        <ele>471.7</ele>
        <time>2020-08-30T11:46:09Z</time>
      </trkpt>
      <trkpt lat="42.86448" lon="1.60884">
        <ele>470</ele>
        <time>2020-08-30T11:46:34Z</time>
      </trkpt>
      <trkpt lat="42.86417" lon="1.60753">
        <ele>469.3</ele>
        <time>2020-08-30T11:47:09Z</time>
      </trkpt>
      <trkpt lat="42.86365" lon="1.60645">
        <ele>468.2</ele>
        <time>2020-08-30T11:47:49Z</time>
      </trkpt>
      <trkpt lat="42.86306" lon="1.60549">
        <ele>467.6</ele>
        <time>2020-08-30T11:48:24Z</time>
      </trkpt>
      <trkpt lat="42.86222" lon="1.60476">
        <ele>468.1</ele>
        <time>2020-08-30T11:48:59Z</time>
      </trkpt>
      <trkpt lat="42.86127" lon="1.60415">
        <ele>469.1</ele>
        <time>2020-08-30T11:49:24Z</time>
      </trkpt>
      <trkpt lat="42.86034" lon="1.60319">
        <ele>468.9</ele>
        <time>2020-08-30T11:49:45Z</time>
      </trkpt>
      <trkpt lat="42.85946" lon="1.60237">
        <ele>467.8</ele>
        <time>2020-08-30T11:50:00Z</time>
      </trkpt>
      <trkpt lat="42.85854" lon="1.60187">
        <ele>465.7</ele>
        <time>2020-08-30T11:52:12Z</time>
      </trkpt>
      <trkpt lat="42.85753" lon="1.60153">
        <ele>463.4</ele>
        <time>2020-08-30T11:52:42Z</time>
      </trkpt>
      <trkpt lat="42.8566" lon="1.60117">
        <ele>460.6</ele>
        <time>2020-08-30T11:53:07Z</time>
      </trkpt>
      <trkpt lat="42.85569" lon="1.60142">
        <ele>460</ele>
        <time>2020-08-30T11:53:32Z</time>
      </trkpt>
      <trkpt lat="42.85472" lon="1.60195">
        <ele>459.5</ele>
        <time>2020-08-30T11:54:02Z</time>
      </trkpt>
      <trkpt lat="42.85388" lon="1.60246">
        <ele>459.6</ele>
        <time>2020-08-30T11:54:27Z</time>
      </trkpt>
      <trkpt lat="42.85289" lon="1.60298">
        <ele>460</ele>
        <time>2020-08-30T11:54:57Z</time>
      </trkpt>
      <trkpt lat="42.85192" lon="1.60347">
        <ele>460.9</ele>
        <time>2020-08-30T11:55:27Z</time>
      </trkpt>
      <trkpt lat="42.85105" lon="1.60393">
        <ele>461.8</ele>
        <time>2020-08-30T11:55:57Z</time>
      </trkpt>
      <trkpt lat="42.85008" lon="1.6044">
        <ele>462.9</ele>
        <time>2020-08-30T11:56:32Z</time>
      </trkpt>
      <trkpt lat="42.84924" lon="1.60482">
        <ele>463.6</ele>
        <time>2020-08-30T11:57:02Z</time>
      </trkpt>
      <trkpt lat="42.84834" lon="1.60526">
        <ele>464.3</ele>
        <time>2020-08-30T11:57:37Z</time>
      </trkpt>
    </trkseg>
  </trk>
</gpx>